createdAt,value
2022-11-19T00:00:27.120Z,0.00
2022-11-19T00:01:27.087Z,0.00
2022-11-19T00:02:27.095Z,0.00
2022-11-19T00:03:27.059Z,0.00
2022-11-19T00:04:27.071Z,0.00
2022-11-19T00:05:27.047Z,0.00
2022-11-19T00:06:27.045Z,0.00
2022-11-19T00:07:27.074Z,0.00
2022-11-19T00:08:27.022Z,0.00
2022-11-19T00:09:27.023Z,0.00
2022-11-19T00:10:27.000Z,0.00
2022-11-19T00:11:26.991Z,0.00
2022-11-19T00:12:26.982Z,0.00
2022-11-19T00:13:26.968Z,0.00
2022-11-19T00:14:26.977Z,0.00
2022-11-19T00:15:26.975Z,0.00
2022-11-19T00:16:26.943Z,0.00
2022-11-19T00:17:26.936Z,0.00
2022-11-19T00:18:26.924Z,0.00
2022-11-19T00:19:26.936Z,0.00
2022-11-19T00:20:26.909Z,0.00
2022-11-19T00:21:26.898Z,0.00
2022-11-19T00:22:26.898Z,0.00
2022-11-19T00:23:26.882Z,0.00
2022-11-19T00:24:26.872Z,0.00
2022-11-19T00:25:26.871Z,0.00
2022-11-19T00:26:26.863Z,0.00
2022-11-19T00:27:26.848Z,0.00
2022-11-19T00:28:26.835Z,0.00
2022-11-19T00:29:26.835Z,0.00
2022-11-19T00:30:47.062Z,0.00
2022-11-19T00:31:28.810Z,0.00
2022-11-19T00:32:26.797Z,0.00
2022-11-19T00:33:26.785Z,0.00
2022-11-19T00:34:26.775Z,0.00
2022-11-19T00:35:26.787Z,0.00
2022-11-19T00:36:26.758Z,0.00
2022-11-19T00:37:26.753Z,0.00
2022-11-19T00:38:26.741Z,0.00
2022-11-19T00:39:26.730Z,0.00
2022-11-19T00:40:26.734Z,0.00
2022-11-19T00:41:26.719Z,0.00
2022-11-19T00:42:26.718Z,0.00
2022-11-19T00:43:26.697Z,0.00
2022-11-19T00:44:26.687Z,0.00
2022-11-19T00:45:26.693Z,0.00
2022-11-19T00:46:26.669Z,0.00
2022-11-19T00:47:26.658Z,0.00
2022-11-19T00:48:26.647Z,0.00
2022-11-19T00:49:26.641Z,0.00
2022-11-19T00:50:26.645Z,0.00
2022-11-19T00:51:26.625Z,0.00
2022-11-19T00:52:26.615Z,0.00
2022-11-19T00:53:26.609Z,0.00
2022-11-19T00:54:26.598Z,0.00
2022-11-19T00:55:26.593Z,0.00
2022-11-19T00:56:26.576Z,0.00
2022-11-19T00:57:26.584Z,0.00
2022-11-19T00:58:26.559Z,0.00
2022-11-19T00:59:26.543Z,0.00
2022-11-19T01:00:26.551Z,0.00
2022-11-19T01:01:26.579Z,0.00
2022-11-19T01:02:26.517Z,0.00
2022-11-19T01:03:26.510Z,0.00
2022-11-19T01:04:26.499Z,0.00
2022-11-19T01:05:26.494Z,0.00
2022-11-19T01:06:26.482Z,0.00
2022-11-19T01:07:26.512Z,0.00
2022-11-19T01:08:26.465Z,0.00
2022-11-19T01:09:26.454Z,0.00
2022-11-19T01:10:26.458Z,0.00
2022-11-19T01:11:26.438Z,0.00
2022-11-19T01:12:26.429Z,0.00
2022-11-19T01:13:26.419Z,0.00
2022-11-19T01:14:26.411Z,0.00
2022-11-19T01:15:26.414Z,0.00
2022-11-19T01:16:26.394Z,0.00
2022-11-19T01:17:26.386Z,0.00
2022-11-19T01:18:26.376Z,0.00
2022-11-19T01:19:26.363Z,0.00
2022-11-19T01:20:26.417Z,0.00
2022-11-19T01:21:26.352Z,0.00
2022-11-19T01:22:26.342Z,0.00
2022-11-19T01:23:26.334Z,0.00
2022-11-19T01:24:26.319Z,0.00
2022-11-19T01:25:26.329Z,0.00
2022-11-19T01:26:26.304Z,0.00
2022-11-19T01:27:26.386Z,0.00
2022-11-19T01:28:26.287Z,0.00
2022-11-19T01:29:26.276Z,0.00
2022-11-19T01:30:26.283Z,0.00
2022-11-19T01:31:26.256Z,0.00
2022-11-19T01:32:26.247Z,0.00
2022-11-19T01:33:26.240Z,0.00
2022-11-19T01:34:26.227Z,0.00
2022-11-19T01:35:26.233Z,0.00
2022-11-19T01:36:26.206Z,0.00
2022-11-19T01:37:26.202Z,0.00
2022-11-19T01:38:26.192Z,0.00
2022-11-19T01:39:26.183Z,0.00
2022-11-19T01:40:26.181Z,0.00
2022-11-19T01:41:26.169Z,0.00
2022-11-19T01:42:26.157Z,0.00
2022-11-19T01:43:26.141Z,0.00
2022-11-19T01:44:26.136Z,0.00
2022-11-19T01:45:26.136Z,0.00
2022-11-19T01:46:26.114Z,0.00
2022-11-19T01:47:26.110Z,0.00
2022-11-19T01:48:26.104Z,0.00
2022-11-19T01:49:26.090Z,0.00
2022-11-19T01:50:26.090Z,0.00
2022-11-19T01:51:26.075Z,0.00
2022-11-19T01:52:26.063Z,0.00
2022-11-19T01:53:26.056Z,0.00
2022-11-19T01:54:26.045Z,0.00
2022-11-19T01:55:26.058Z,0.00
2022-11-19T01:56:26.031Z,0.00
2022-11-19T01:57:26.018Z,0.00
2022-11-19T01:58:26.012Z,0.00
2022-11-19T01:59:26.001Z,0.00
2022-11-19T02:00:26.000Z,0.00
2022-11-19T02:01:26.083Z,0.00
2022-11-19T02:02:25.974Z,0.00
2022-11-19T02:03:25.963Z,0.00
2022-11-19T02:04:25.948Z,0.00
2022-11-19T02:05:25.956Z,0.00
2022-11-19T02:06:25.935Z,0.00
2022-11-19T02:07:26.005Z,0.00
2022-11-19T02:08:25.921Z,0.00
2022-11-19T02:09:25.911Z,0.00
2022-11-19T02:10:25.911Z,0.00
2022-11-19T02:11:25.897Z,0.00
2022-11-19T02:12:25.882Z,0.00
2022-11-19T02:13:25.872Z,0.00
2022-11-19T02:14:25.862Z,0.00
2022-11-19T02:15:25.860Z,0.00
2022-11-19T02:16:25.845Z,0.00
2022-11-19T02:17:25.834Z,0.00
2022-11-19T02:18:25.822Z,0.00
2022-11-19T02:19:25.818Z,0.00
2022-11-19T02:20:25.817Z,0.00
2022-11-19T02:21:25.797Z,0.00
2022-11-19T02:22:25.784Z,0.00
2022-11-19T02:23:25.779Z,0.00
2022-11-19T02:24:25.766Z,0.00
2022-11-19T02:25:25.770Z,0.00
2022-11-19T02:26:25.752Z,0.00
2022-11-19T02:27:25.741Z,0.00
2022-11-19T02:28:25.733Z,0.00
2022-11-19T02:29:25.712Z,0.00
2022-11-19T02:30:26.726Z,0.00
2022-11-19T02:31:25.697Z,0.00
2022-11-19T02:32:25.695Z,0.00
2022-11-19T02:33:25.687Z,0.00
2022-11-19T02:34:25.673Z,0.00
2022-11-19T02:35:25.678Z,0.00
2022-11-19T02:36:25.656Z,0.00
2022-11-19T02:37:25.649Z,0.00
2022-11-19T02:38:25.647Z,0.00
2022-11-19T02:39:25.659Z,0.00
2022-11-19T02:40:25.634Z,0.00
2022-11-19T02:41:25.615Z,0.00
2022-11-19T02:42:25.597Z,0.00
2022-11-19T02:43:25.588Z,0.00
2022-11-19T02:44:25.581Z,0.00
2022-11-19T02:45:25.584Z,0.00
2022-11-19T02:46:25.566Z,0.00
2022-11-19T02:47:25.557Z,0.00
2022-11-19T02:48:25.553Z,0.00
2022-11-19T02:49:25.535Z,0.00
2022-11-19T02:50:25.541Z,0.00
2022-11-19T02:51:25.530Z,0.00
2022-11-19T02:52:25.512Z,0.00
2022-11-19T02:53:25.501Z,0.00
2022-11-19T02:54:25.501Z,0.00
2022-11-19T02:55:25.499Z,0.00
2022-11-19T02:56:25.479Z,0.00
2022-11-19T02:57:25.467Z,0.00
2022-11-19T02:58:25.459Z,0.00
2022-11-19T02:59:25.465Z,0.00
2022-11-19T03:00:25.446Z,0.00
2022-11-19T03:01:25.478Z,0.00
2022-11-19T03:02:25.427Z,0.00
2022-11-19T03:03:25.415Z,0.00
2022-11-19T03:04:25.404Z,0.00
2022-11-19T03:05:25.406Z,0.00
2022-11-19T03:06:25.381Z,0.00
2022-11-19T03:07:25.401Z,0.00
2022-11-19T03:08:25.370Z,0.00
2022-11-19T03:09:25.361Z,0.00
2022-11-19T03:10:25.362Z,0.00
2022-11-19T03:11:25.340Z,0.00
2022-11-19T03:12:25.337Z,0.00
2022-11-19T03:13:25.331Z,0.00
2022-11-19T03:14:25.331Z,0.00
2022-11-19T03:15:25.318Z,0.00
2022-11-19T03:16:25.300Z,0.00
2022-11-19T03:17:25.290Z,0.00
2022-11-19T03:18:25.281Z,0.00
2022-11-19T03:19:25.271Z,0.00
2022-11-19T03:20:25.273Z,0.00
2022-11-19T03:21:25.255Z,0.00
2022-11-19T03:22:25.246Z,0.00
2022-11-19T03:23:25.239Z,0.00
2022-11-19T03:24:25.227Z,0.00
2022-11-19T03:25:25.228Z,0.00
2022-11-19T03:26:25.205Z,0.00
2022-11-19T03:27:25.201Z,0.00
2022-11-19T03:28:25.188Z,0.00
2022-11-19T03:29:25.179Z,0.00
2022-11-19T03:30:25.179Z,0.00
2022-11-19T03:31:25.160Z,0.00
2022-11-19T03:32:25.150Z,0.00
2022-11-19T03:33:25.142Z,0.00
2022-11-19T03:34:25.139Z,0.00
2022-11-19T03:35:25.165Z,0.00
2022-11-19T03:36:25.119Z,0.00
2022-11-19T03:37:25.106Z,0.00
2022-11-19T03:38:25.102Z,0.00
2022-11-19T03:39:25.075Z,0.00
2022-11-19T03:40:26.093Z,0.00
2022-11-19T03:41:25.071Z,0.00
2022-11-19T03:42:25.066Z,0.00
2022-11-19T03:43:25.051Z,0.00
2022-11-19T03:44:25.047Z,0.00
2022-11-19T03:45:25.038Z,0.00
2022-11-19T03:46:25.019Z,0.00
2022-11-19T03:47:25.012Z,0.00
2022-11-19T03:48:25.003Z,0.00
2022-11-19T03:49:24.993Z,0.00
2022-11-19T03:50:24.991Z,0.00
2022-11-19T03:51:25.017Z,0.00
2022-11-19T03:52:24.959Z,0.00
2022-11-19T03:53:24.948Z,0.00
2022-11-19T03:54:24.951Z,0.00
2022-11-19T03:55:24.949Z,0.00
2022-11-19T03:56:24.929Z,0.00
2022-11-19T03:57:24.916Z,0.00
2022-11-19T03:58:24.911Z,0.00
2022-11-19T03:59:29.450Z,0.00
2022-11-19T04:00:26.912Z,0.00
2022-11-19T04:01:24.917Z,0.00
2022-11-19T04:02:24.870Z,0.00
2022-11-19T04:03:24.870Z,0.00
2022-11-19T04:04:24.858Z,0.00
2022-11-19T04:05:24.862Z,0.00
2022-11-19T04:06:24.834Z,0.00
2022-11-19T04:07:24.854Z,0.00
2022-11-19T04:08:24.816Z,0.00
2022-11-19T04:09:24.806Z,0.00
2022-11-19T04:10:24.800Z,0.00
2022-11-19T04:12:10.041Z,0.00
2022-11-19T04:13:10.047Z,0.00
2022-11-19T04:14:10.044Z,0.00
2022-11-19T04:15:10.023Z,0.00
2022-11-19T04:16:10.028Z,0.00
2022-11-19T04:17:10.006Z,0.00
2022-11-19T04:18:09.999Z,0.00
2022-11-19T04:19:09.984Z,0.00
2022-11-19T04:20:09.986Z,0.00
2022-11-19T04:21:09.979Z,0.00
2022-11-19T04:22:09.963Z,0.00
2022-11-19T04:23:09.952Z,0.00
2022-11-19T04:24:09.956Z,0.00
2022-11-19T04:25:09.958Z,0.00
2022-11-19T04:26:09.951Z,0.00
2022-11-19T04:27:09.912Z,0.00
2022-11-19T04:28:09.907Z,0.00
2022-11-19T04:29:09.899Z,0.00
2022-11-19T04:30:11.003Z,0.00
2022-11-19T04:31:16.447Z,0.00
2022-11-19T04:32:12.987Z,0.00
2022-11-19T04:33:10.976Z,0.00
2022-11-19T04:34:10.961Z,0.00
2022-11-19T04:35:10.958Z,0.00
2022-11-19T04:36:10.954Z,0.00
2022-11-19T04:37:10.937Z,0.00
2022-11-19T04:38:10.928Z,0.00
2022-11-19T04:39:10.917Z,0.00
2022-11-19T04:40:10.910Z,0.00
2022-11-19T04:41:10.918Z,0.00
2022-11-19T04:42:10.895Z,0.00
2022-11-19T04:43:10.884Z,0.00
2022-11-19T04:44:10.882Z,0.00
2022-11-19T04:45:10.881Z,0.00
2022-11-19T04:46:10.867Z,0.00
2022-11-19T04:47:10.850Z,0.00
2022-11-19T04:48:10.839Z,0.00
2022-11-19T04:49:10.829Z,0.00
2022-11-19T04:50:10.825Z,0.00
2022-11-19T04:51:10.831Z,0.00
2022-11-19T04:52:10.801Z,0.00
2022-11-19T04:53:10.794Z,0.00
2022-11-19T04:54:10.788Z,0.00
2022-11-19T04:55:10.806Z,0.00
2022-11-19T04:56:10.772Z,0.00
2022-11-19T04:57:10.785Z,0.00
2022-11-19T04:58:10.743Z,0.00
2022-11-19T04:59:10.733Z,0.00
2022-11-19T05:00:10.737Z,0.00
2022-11-19T05:01:10.787Z,0.00
2022-11-19T05:02:10.723Z,0.00
2022-11-19T05:03:10.696Z,0.00
2022-11-19T05:04:10.697Z,0.00
2022-11-19T05:05:10.683Z,0.00
2022-11-19T05:06:10.677Z,0.00
2022-11-19T05:07:10.750Z,0.00
2022-11-19T05:08:10.657Z,0.00
2022-11-19T05:09:10.644Z,0.00
2022-11-19T05:10:10.635Z,0.00
2022-11-19T05:11:10.633Z,0.00
2022-11-19T05:12:10.612Z,0.00
2022-11-19T05:13:10.607Z,0.00
2022-11-19T05:14:10.595Z,0.00
2022-11-19T05:15:10.598Z,0.00
2022-11-19T05:16:10.583Z,0.00
2022-11-19T05:17:10.567Z,0.00
2022-11-19T05:18:10.558Z,0.00
2022-11-19T05:19:10.746Z,0.00
2022-11-19T05:20:10.542Z,0.00
2022-11-19T05:21:10.541Z,0.00
2022-11-19T05:22:10.521Z,0.00
2022-11-19T05:23:10.513Z,0.00
2022-11-19T05:24:10.502Z,0.00
2022-11-19T05:25:10.495Z,0.00
2022-11-19T05:26:10.497Z,0.00
2022-11-19T05:27:10.476Z,0.00
2022-11-19T05:28:10.469Z,0.00
2022-11-19T05:29:10.465Z,0.00
2022-11-19T05:30:10.454Z,0.00
2022-11-19T05:31:10.452Z,0.00
2022-11-19T05:32:10.430Z,0.00
2022-11-19T05:33:10.423Z,0.00
2022-11-19T05:34:10.413Z,0.00
2022-11-19T05:35:10.401Z,0.00
2022-11-19T05:36:10.403Z,0.00
2022-11-19T05:37:10.385Z,0.00
2022-11-19T05:38:10.379Z,0.00
2022-11-19T05:39:10.368Z,0.00
2022-11-19T05:40:10.349Z,0.00
2022-11-19T05:41:10.349Z,0.00
2022-11-19T05:42:10.333Z,0.00
2022-11-19T05:43:10.328Z,0.00
2022-11-19T05:44:10.355Z,0.00
2022-11-19T05:45:10.310Z,0.00
2022-11-19T05:46:10.302Z,0.00
2022-11-19T05:47:10.279Z,0.00
2022-11-19T05:48:10.277Z,0.00
2022-11-19T05:49:10.268Z,0.00
2022-11-19T05:50:10.256Z,0.00
2022-11-19T05:51:10.257Z,0.00
2022-11-19T05:52:10.238Z,0.00
2022-11-19T05:53:10.228Z,0.00
2022-11-19T05:54:10.281Z,0.00
2022-11-19T05:55:10.209Z,0.00
2022-11-19T05:56:10.209Z,0.00
2022-11-19T05:57:42.100Z,0.00
2022-11-19T05:58:10.191Z,0.00
2022-11-19T05:59:10.174Z,0.00
2022-11-19T06:00:10.163Z,0.00
2022-11-19T06:01:10.194Z,0.00
2022-11-19T06:02:10.147Z,0.00
2022-11-19T06:03:10.185Z,0.00
2022-11-19T06:04:11.132Z,0.00
2022-11-19T06:05:10.121Z,0.00
2022-11-19T06:06:10.123Z,0.00
2022-11-19T06:07:10.185Z,0.00
2022-11-19T06:08:10.090Z,0.00
2022-11-19T06:09:10.081Z,0.00
2022-11-19T06:10:10.075Z,0.00
2022-11-19T06:11:10.077Z,0.00
2022-11-19T06:12:10.061Z,0.00
2022-11-19T06:13:10.041Z,0.00
2022-11-19T06:14:10.034Z,0.00
2022-11-19T06:15:10.025Z,0.00
2022-11-19T06:16:10.032Z,0.00
2022-11-19T06:17:10.005Z,0.00
2022-11-19T06:18:10.001Z,4.00
2022-11-19T06:19:09.987Z,0.00
2022-11-19T06:20:09.973Z,0.00
2022-11-19T06:21:12.241Z,4.00
2022-11-19T06:22:10.970Z,4.00
2022-11-19T06:23:09.947Z,0.00
2022-11-19T06:24:09.948Z,4.00
2022-11-19T06:25:09.935Z,0.00
2022-11-19T06:26:09.928Z,4.00
2022-11-19T06:27:09.924Z,4.00
2022-11-19T06:28:09.909Z,8.00
2022-11-19T06:29:09.898Z,4.00
2022-11-19T06:30:09.892Z,8.00
2022-11-19T06:31:09.883Z,8.00
2022-11-19T06:32:09.884Z,8.00
2022-11-19T06:33:09.862Z,8.00
2022-11-19T06:34:09.856Z,12.00
2022-11-19T06:35:09.843Z,12.00
2022-11-19T06:36:09.836Z,12.00
2022-11-19T06:37:09.840Z,20.00
2022-11-19T06:38:09.820Z,16.00
2022-11-19T06:39:09.812Z,20.00
2022-11-19T06:40:09.802Z,24.00
2022-11-19T06:41:09.796Z,28.00
2022-11-19T06:42:09.795Z,28.00
2022-11-19T06:43:09.777Z,32.00
2022-11-19T06:44:09.766Z,36.00
2022-11-19T06:45:09.759Z,40.00
2022-11-19T06:46:09.752Z,44.00
2022-11-19T06:47:09.751Z,48.00
2022-11-19T06:48:09.736Z,52.00
2022-11-19T06:49:09.726Z,56.00
2022-11-19T06:50:09.714Z,60.00
2022-11-19T06:51:09.707Z,64.00
2022-11-19T06:52:09.708Z,68.00
2022-11-19T06:53:09.686Z,72.00
2022-11-19T06:54:09.680Z,76.00
2022-11-19T06:55:09.669Z,80.00
2022-11-19T06:56:09.660Z,84.00
2022-11-19T06:57:09.665Z,88.00
2022-11-19T06:58:09.643Z,92.00
2022-11-19T06:59:09.635Z,100.00
2022-11-19T07:00:09.627Z,108.00
2022-11-19T07:01:09.620Z,116.00
2022-11-19T07:02:09.619Z,120.00
2022-11-19T07:03:09.620Z,128.00
2022-11-19T07:04:09.589Z,136.00
2022-11-19T07:05:09.584Z,144.00
2022-11-19T07:06:09.570Z,152.00
2022-11-19T07:07:10.600Z,160.00
2022-11-19T07:08:09.554Z,168.00
2022-11-19T07:09:09.540Z,176.00
2022-11-19T07:10:09.532Z,180.00
2022-11-19T07:11:09.527Z,188.00
2022-11-19T07:12:09.525Z,192.00
2022-11-19T07:13:09.507Z,200.00
2022-11-19T07:14:09.501Z,204.00
2022-11-19T07:15:09.493Z,212.00
2022-11-19T07:16:09.484Z,216.00
2022-11-19T07:17:09.485Z,224.00
2022-11-19T07:18:09.462Z,232.00
2022-11-19T07:19:09.985Z,236.00
2022-11-19T07:20:09.444Z,244.00
2022-11-19T07:21:09.437Z,248.00
2022-11-19T07:22:09.441Z,256.00
2022-11-19T07:23:09.424Z,260.00
2022-11-19T07:24:09.414Z,264.00
2022-11-19T07:25:09.404Z,268.00
2022-11-19T07:26:09.399Z,268.00
2022-11-19T07:27:09.394Z,276.00
2022-11-19T07:28:09.378Z,284.00
2022-11-19T07:29:09.368Z,292.00
2022-11-19T07:30:09.364Z,300.00
2022-11-19T07:31:09.348Z,312.00
2022-11-19T07:32:09.361Z,332.00
2022-11-19T07:33:09.338Z,348.00
2022-11-19T07:34:09.320Z,356.00
2022-11-19T07:35:09.315Z,364.00
2022-11-19T07:36:12.822Z,376.00
2022-11-19T07:37:10.310Z,384.00
2022-11-19T07:38:09.287Z,400.00
2022-11-19T07:39:10.268Z,404.00
2022-11-19T07:40:09.266Z,412.00
2022-11-19T07:41:09.254Z,428.00
2022-11-19T07:42:09.258Z,444.00
2022-11-19T07:43:09.235Z,444.00
2022-11-19T07:44:09.217Z,448.00
2022-11-19T07:45:10.221Z,440.00
2022-11-19T07:46:09.204Z,448.00
2022-11-19T07:47:09.212Z,460.00
2022-11-19T07:48:09.189Z,476.00
2022-11-19T07:49:09.180Z,496.00
2022-11-19T07:50:09.170Z,512.00
2022-11-19T07:51:09.165Z,528.00
2022-11-19T07:52:09.165Z,552.00
2022-11-19T07:53:09.143Z,580.00
2022-11-19T07:54:09.142Z,608.00
2022-11-19T07:55:09.135Z,652.00
2022-11-19T07:56:09.115Z,696.00
2022-11-19T07:57:09.119Z,752.00
2022-11-19T07:58:09.091Z,796.00
2022-11-19T07:59:09.090Z,816.00
2022-11-19T08:00:09.078Z,812.00
2022-11-19T08:01:09.069Z,800.00
2022-11-19T08:02:09.087Z,776.00
2022-11-19T08:03:09.047Z,780.00
2022-11-19T08:04:09.041Z,780.00
2022-11-19T08:05:09.034Z,768.00
2022-11-19T08:06:09.018Z,764.00
2022-11-19T08:07:09.057Z,780.00
2022-11-19T08:08:09.001Z,780.00
2022-11-19T08:09:08.991Z,800.00
2022-11-19T08:10:08.981Z,812.00
2022-11-19T08:11:08.975Z,828.00
2022-11-19T08:12:08.973Z,860.00
2022-11-19T08:13:08.953Z,900.00
2022-11-19T08:14:08.944Z,988.00
2022-11-19T08:15:08.937Z,1040.00
2022-11-19T08:16:08.923Z,1076.00
2022-11-19T08:17:08.930Z,1120.00
2022-11-19T08:18:08.905Z,1168.00
2022-11-19T08:19:08.900Z,1140.00
2022-11-19T08:20:08.887Z,1208.00
2022-11-19T08:21:08.883Z,1252.00
2022-11-19T08:22:08.884Z,1260.00
2022-11-19T08:23:08.883Z,1268.00
2022-11-19T08:24:08.851Z,1472.00
2022-11-19T08:25:08.840Z,1560.00
2022-11-19T08:26:08.836Z,1552.00
2022-11-19T08:27:08.835Z,1812.00
2022-11-19T08:28:08.813Z,1712.00
2022-11-19T08:29:14.625Z,1948.00
2022-11-19T08:30:10.793Z,2116.00
2022-11-19T08:31:08.789Z,3884.00
2022-11-19T08:32:08.794Z,3144.00
2022-11-19T08:33:08.766Z,15936.00
2022-11-19T08:34:08.765Z,10576.00
2022-11-19T08:35:08.749Z,15552.00
2022-11-19T08:36:08.743Z,11056.00
2022-11-19T08:37:08.744Z,6748.00
2022-11-19T08:38:08.726Z,8228.00
2022-11-19T08:39:08.715Z,9712.00
2022-11-19T08:40:08.713Z,11672.00
2022-11-19T08:41:08.701Z,7560.00
2022-11-19T08:42:08.696Z,4720.00
2022-11-19T08:43:09.684Z,3836.00
2022-11-19T08:44:08.673Z,3424.00
2022-11-19T08:45:08.665Z,6632.00
2022-11-19T08:46:08.655Z,6284.00
2022-11-19T08:47:08.663Z,6096.00
2022-11-19T08:48:08.640Z,6248.00
2022-11-19T08:49:08.632Z,6132.00
2022-11-19T08:50:08.619Z,21888.00
2022-11-19T08:51:08.607Z,46016.00
2022-11-19T08:52:08.612Z,59456.00
2022-11-19T08:53:08.589Z,59328.00
2022-11-19T08:54:08.583Z,55392.00
2022-11-19T08:55:08.633Z,58720.00
2022-11-19T08:56:08.562Z,63488.00
2022-11-19T08:57:08.566Z,68928.00
2022-11-19T08:58:08.562Z,76736.00
2022-11-19T08:59:08.550Z,77696.00
2022-11-19T09:00:08.539Z,72416.00
2022-11-19T09:01:08.675Z,67392.00
2022-11-19T09:02:08.527Z,62496.00
2022-11-19T09:03:08.512Z,52736.00
2022-11-19T09:04:08.498Z,31904.00
2022-11-19T09:05:13.272Z,12720.00
2022-11-19T09:06:10.475Z,3920.00
2022-11-19T09:07:09.511Z,3648.00
2022-11-19T09:08:08.463Z,8156.00
2022-11-19T09:09:08.448Z,36096.00
2022-11-19T09:10:08.439Z,62208.00
2022-11-19T09:11:08.430Z,70432.00
2022-11-19T09:12:08.431Z,70912.00
2022-11-19T09:13:08.409Z,66656.00
2022-11-19T09:14:08.403Z,67616.00
2022-11-19T09:15:08.392Z,64096.00
2022-11-19T09:16:08.380Z,35648.00
2022-11-19T09:17:08.384Z,43584.00
2022-11-19T09:18:08.359Z,39808.00
2022-11-19T09:19:08.351Z,29312.00
2022-11-19T09:20:08.347Z,56320.00
2022-11-19T09:21:08.335Z,72512.00
2022-11-19T09:22:08.343Z,63776.00
2022-11-19T09:23:08.311Z,52864.00
2022-11-19T09:24:08.298Z,52448.00
2022-11-19T09:25:08.287Z,48544.00
2022-11-19T09:26:08.280Z,33408.00
2022-11-19T09:27:08.284Z,13624.00
2022-11-19T09:28:08.256Z,23136.00
2022-11-19T09:29:08.247Z,51936.00
2022-11-19T09:30:08.245Z,38656.00
2022-11-19T09:31:08.251Z,41216.00
2022-11-19T09:32:08.235Z,72736.00
2022-11-19T09:33:08.210Z,80000.00
2022-11-19T09:34:08.215Z,81792.00
2022-11-19T09:35:08.199Z,81984.00
2022-11-19T09:36:08.179Z,74784.00
2022-11-19T09:37:08.177Z,81056.00
2022-11-19T09:38:08.156Z,83424.00
2022-11-19T09:39:08.141Z,85120.00
2022-11-19T09:40:08.136Z,82048.00
2022-11-19T09:41:08.123Z,79392.00
2022-11-19T09:42:08.122Z,81024.00
2022-11-19T09:43:12.560Z,83424.00
2022-11-19T09:44:09.092Z,85184.00
2022-11-19T09:45:08.085Z,80736.00
2022-11-19T09:46:08.072Z,76544.00
2022-11-19T09:47:08.073Z,67136.00
2022-11-19T09:48:08.053Z,49472.00
2022-11-19T09:49:08.042Z,56704.00
2022-11-19T09:50:08.033Z,73408.00
2022-11-19T09:51:08.023Z,81152.00
2022-11-19T09:52:08.035Z,87424.00
2022-11-19T09:53:08.003Z,83744.00
2022-11-19T09:54:07.997Z,71808.00
2022-11-19T09:55:07.984Z,73088.00
2022-11-19T09:56:07.976Z,80256.00
2022-11-19T09:57:07.974Z,87072.00
2022-11-19T09:58:07.964Z,89600.00
2022-11-19T09:59:07.946Z,86880.00
2022-11-19T10:00:07.930Z,86304.00
2022-11-19T10:01:07.922Z,81792.00
2022-11-19T10:02:07.921Z,33760.00
2022-11-19T10:03:08.022Z,3760.00
2022-11-19T10:04:07.891Z,3460.00
2022-11-19T10:05:07.888Z,3300.00
2022-11-19T10:06:07.875Z,3176.00
2022-11-19T10:07:07.937Z,3088.00
2022-11-19T10:08:07.855Z,3076.00
2022-11-19T10:09:07.843Z,3080.00
2022-11-19T10:10:12.102Z,3084.00
2022-11-19T10:11:08.826Z,3068.00
2022-11-19T10:12:07.821Z,3064.00
2022-11-19T10:13:07.799Z,3064.00
2022-11-19T10:14:07.793Z,3060.00
2022-11-19T10:15:07.779Z,3072.00
2022-11-19T10:16:07.768Z,3064.00
2022-11-19T10:17:07.771Z,3048.00
2022-11-19T10:18:07.752Z,3024.00
2022-11-19T10:19:07.799Z,3028.00
2022-11-19T10:20:07.737Z,2968.00
2022-11-19T10:21:07.724Z,2948.00
2022-11-19T10:22:07.725Z,2912.00
2022-11-19T10:23:07.703Z,2860.00
2022-11-19T10:24:07.699Z,2832.00
2022-11-19T10:25:07.686Z,2800.00
2022-11-19T10:26:07.675Z,2816.00
2022-11-19T10:27:08.736Z,2788.00
2022-11-19T10:28:08.659Z,2760.00
2022-11-19T10:29:07.649Z,2724.00
2022-11-19T10:30:07.640Z,2700.00
2022-11-19T10:31:07.635Z,2648.00
2022-11-19T10:32:07.634Z,2604.00
2022-11-19T10:33:07.608Z,2556.00
2022-11-19T10:34:07.605Z,2516.00
2022-11-19T10:35:07.594Z,2472.00
2022-11-19T10:36:07.589Z,2408.00
2022-11-19T10:37:07.588Z,2360.00
2022-11-19T10:38:07.569Z,2304.00
2022-11-19T10:39:07.568Z,2240.00
2022-11-19T10:40:07.562Z,2180.00
2022-11-19T10:41:07.585Z,2116.00
2022-11-19T10:42:07.554Z,2052.00
2022-11-19T10:43:07.526Z,1992.00
2022-11-19T10:44:07.516Z,1960.00
2022-11-19T10:45:07.495Z,1928.00
2022-11-19T10:46:08.502Z,1892.00
2022-11-19T10:47:07.506Z,1876.00
2022-11-19T10:48:09.347Z,1844.00
2022-11-19T10:49:08.473Z,1812.00
2022-11-19T10:50:11.090Z,1792.00
2022-11-19T10:51:08.453Z,1764.00
2022-11-19T10:52:07.440Z,1740.00
2022-11-19T10:53:07.441Z,1732.00
2022-11-19T10:54:07.485Z,1720.00
2022-11-19T10:55:07.412Z,1708.00
2022-11-19T10:56:07.444Z,1688.00
2022-11-19T10:57:07.476Z,1676.00
2022-11-19T10:58:07.392Z,1640.00
2022-11-19T10:59:07.404Z,1560.00
2022-11-19T11:00:07.364Z,1472.00
2022-11-19T11:01:07.388Z,1468.00
2022-11-19T11:02:07.349Z,1540.00
2022-11-19T11:03:07.374Z,1528.00
2022-11-19T11:04:07.318Z,1584.00
2022-11-19T11:05:08.318Z,1636.00
2022-11-19T11:06:07.307Z,1664.00
2022-11-19T11:07:07.344Z,1520.00
2022-11-19T11:08:07.302Z,1316.00
2022-11-19T11:09:07.280Z,1340.00
2022-11-19T11:10:07.280Z,1360.00
2022-11-19T11:11:07.265Z,1388.00
2022-11-19T11:12:07.259Z,1436.00
2022-11-19T11:13:07.274Z,1528.00
2022-11-19T11:14:07.237Z,1420.00
2022-11-19T11:15:07.230Z,1548.00
2022-11-19T11:16:07.221Z,1644.00
2022-11-19T11:17:07.212Z,1636.00
2022-11-19T11:18:07.978Z,1692.00
2022-11-19T11:19:07.194Z,1744.00
2022-11-19T11:20:07.209Z,1744.00
2022-11-19T11:21:07.177Z,1724.00
2022-11-19T11:22:07.168Z,1672.00
2022-11-19T11:23:07.166Z,1696.00
2022-11-19T11:24:07.151Z,1692.00
2022-11-19T11:25:07.654Z,1684.00
2022-11-19T11:26:08.133Z,1672.00
2022-11-19T11:27:07.123Z,1660.00
2022-11-19T11:28:07.125Z,1648.00
2022-11-19T11:29:07.109Z,1632.00
2022-11-19T11:30:07.089Z,1620.00
2022-11-19T11:31:08.092Z,1596.00
2022-11-19T11:32:07.080Z,1576.00
2022-11-19T11:33:08.876Z,1552.00
2022-11-19T11:34:08.060Z,1540.00
2022-11-19T11:35:10.975Z,1524.00
2022-11-19T11:36:09.084Z,1504.00
2022-11-19T11:37:07.034Z,1496.00
2022-11-19T11:38:07.033Z,1476.00
2022-11-19T11:39:07.034Z,1456.00
2022-11-19T11:40:07.006Z,1448.00
2022-11-19T11:42:11.749Z,1408.00
2022-11-19T11:43:07.991Z,1396.00
2022-11-19T11:44:06.967Z,1384.00
2022-11-19T11:45:06.992Z,1380.00
2022-11-19T11:46:06.952Z,1372.00
2022-11-19T11:47:06.945Z,1368.00
2022-11-19T11:48:06.943Z,1348.00
2022-11-19T11:49:11.341Z,1336.00
2022-11-19T11:50:08.923Z,1324.00
2022-11-19T11:51:06.912Z,1324.00
2022-11-19T11:52:06.903Z,1316.00
2022-11-19T11:53:06.900Z,1304.00
2022-11-19T11:54:06.883Z,1296.00
2022-11-19T11:55:06.879Z,1288.00
2022-11-19T11:56:06.865Z,1284.00
2022-11-19T11:57:38.775Z,1280.00
2022-11-19T11:58:06.938Z,1276.00
2022-11-19T11:59:06.838Z,1272.00
2022-11-19T12:00:06.834Z,1260.00
2022-11-19T12:01:11.453Z,1256.00
2022-11-19T12:02:08.849Z,1244.00
2022-11-19T12:03:06.815Z,1244.00
2022-11-19T12:04:06.811Z,1228.00
2022-11-19T12:05:06.782Z,1228.00
2022-11-19T12:06:06.775Z,1224.00
2022-11-19T12:07:06.817Z,1208.00
2022-11-19T12:08:06.763Z,1200.00
2022-11-19T12:09:06.744Z,1196.00
2022-11-19T12:10:06.732Z,1192.00
2022-11-19T12:11:06.725Z,1184.00
2022-11-19T12:12:06.792Z,1176.00
2022-11-19T12:13:06.781Z,1172.00
2022-11-19T12:14:10.940Z,1164.00
2022-11-19T12:15:07.683Z,1164.00
2022-11-19T12:16:06.678Z,1156.00
2022-11-19T12:17:06.786Z,1144.00
2022-11-19T12:18:06.667Z,1136.00
2022-11-19T12:19:06.651Z,1124.00
2022-11-19T12:20:06.646Z,1116.00
2022-11-19T12:21:11.518Z,1112.00
2022-11-19T12:22:08.648Z,1108.00
2022-11-19T12:23:06.623Z,1100.00
2022-11-19T12:24:06.611Z,1100.00
2022-11-19T12:25:06.594Z,1092.00
2022-11-19T12:26:06.582Z,1088.00
2022-11-19T12:27:06.573Z,1084.00
2022-11-19T12:28:06.581Z,1080.00
2022-11-19T12:29:06.557Z,1076.00
2022-11-19T12:30:06.547Z,1068.00
2022-11-19T12:31:06.537Z,1068.00
2022-11-19T12:32:06.533Z,1060.00
2022-11-19T12:33:06.527Z,1056.00
2022-11-19T12:34:06.504Z,1056.00
2022-11-19T12:35:06.494Z,1048.00
2022-11-19T12:36:06.481Z,1044.00
2022-11-19T12:37:06.477Z,1040.00
2022-11-19T12:38:06.493Z,1032.00
2022-11-19T12:39:06.455Z,1028.00
2022-11-19T12:40:06.451Z,1024.00
2022-11-19T12:41:06.517Z,1020.00
2022-11-19T12:42:06.431Z,1020.00
2022-11-19T12:43:06.433Z,1024.00
2022-11-19T12:44:06.412Z,1020.00
2022-11-19T12:45:06.403Z,1020.00